Terminal Aerodrome Forecast
Issued by NWS Binghamton, NY

Home | Current Version | Previous Version | Text Only | Print | Product List | Glossary On
Versions: 1 2 3 4 5 6 7 8 9 10 11 12 13 14 15 16 17 18 19 20 21 22 23 24
000
FTUS41 KBGM 011724
TAFBGM
TAF
KBGM 011724Z 0118/0218 26008G16KT P6SM BKN050
      TEMPO 0118/0120 3SM TSRA OVC025CB
     FM012300 30008KT P6SM BKN050
     FM020500 29006KT P6SM OVC015
     FM020800 30004KT 5SM BR OVC007
     FM021400 31005KT P6SM SCT022=

USA.gov is the U.S. government's official web portal to all federal, state and local government web resources and services.